Latest Coastal Weather Observations for Swan Island

IDT60701

Issued at 3:32 am EDT Monday 20 February 2017 (issued every 10 minutes, with the page automatically refreshed every 10 minutes)

About coastal observations | Map of coastal stations | Coastal observations for TAS | Marine services | Other Formats
Station Details ID: 092123 Name: SWAN ISLAND Lat: -40.73 Lon: 148.12 Height: 15.0 m
Data from the previous 72 hours. | See also: Recent months at Swan Island
Date/Time
EDT
Temp
°C
Wind Pressure Rain since
9am
mm
Weather Cloud Vis
km
Sea
Height
m
Swell
Dir  Spd
kts
Gust
kts
hPa Trend Height
m
Period
s
Dir
20/03:00am 12.1 S 5 6 1005.0 - 1.8 - - - - - - -
20/02:30am 12.4 SSW 5 7 1005.0 - 1.8 - - - - - - -
20/02:00am 13.0 W 2 3 1005.1 - 1.8 - - - - - - -
20/01:30am 13.3 NW 4 5 1005.4 - 1.8 - - - - - - -
20/01:00am 13.9 NW 6 8 1005.8 - 1.8 - - - - - - -
20/12:30am 13.9 NW 7 9 1005.6 - 1.8 - - - - - - -
20/12:00am 13.7 NW 7 10 1005.5 - 1.8 - - - - - - -
 
Date/Time
EDT
Temp
°C
Wind Pressure Rain since
9am
mm
Weather Cloud Vis
km
Sea
Height
m
Swell
Dir  Spd
kts
Gust
kts
hPa Trend Height
m
Period
s
Dir
19/11:30pm 14.1 NW 6 9 1005.8 - 1.8 - - - - - - -
19/11:00pm 13.8 NW 5 8 1006.1 - 1.8 - - - - - - -
19/10:30pm 14.2 NNW 8 10 1006.3 - 1.6 - - - - - - -
19/10:00pm 14.4 NW 10 13 1006.3 - 1.6 - - - - - - -
19/09:30pm 14.0 NW 8 10 1006.3 - 1.6 - - - - - - -
19/09:00pm 14.3 NW 12 15 1006.0 - 1.6 - - - - - - -
19/08:30pm 14.3 NW 11 14 1005.7 - 1.6 - - - - - - -
19/08:00pm 14.4 NNW 13 15 1005.3 - 1.6 - - - - - - -
19/07:30pm 14.7 NNW 14 18 1005.1 - 1.6 - - - - - - -
19/07:00pm 14.4 NW 11 13 1005.0 - 1.6 - - - - - - -
19/06:30pm 15.4 NW 12 15 1004.8 - 1.6 - - - - - - -
19/06:00pm 15.8 WNW 9 13 1004.9 - 1.6 - - - - - - -
19/05:30pm 15.1 WNW 10 15 1004.8 - 1.6 - - - - - - -
19/05:00pm 15.4 NW 4 6 1004.5 - 1.6 - - - - - - -
19/04:30pm 14.6 NW 4 6 1004.7 - 1.6 - - - - - - -
19/04:00pm 13.0 NW 12 18 1004.9 - 1.6 - - - - - - -
19/03:30pm 15.9 NW 8 13 1004.7 - 1.2 - - - - - - -
19/03:00pm 15.4 NW 10 15 1004.9 - 1.2 - - - - - - -
19/02:30pm 15.8 NW 10 15 1004.8 - 1.2 - - - - - - -
19/02:00pm 16.0 WNW 8 12 1004.8 - 1.2 - - - - - - -
19/01:30pm 15.0 NW 9 13 1004.9 - 1.2 - - - - - - -
19/01:00pm 13.9 NNW 15 18 1005.0 - 1.2 - - - - - - -
19/12:30pm 12.8 NNW 20 25 1005.3 - 1.2 - - - - - - -
19/12:00pm 13.0 NNW 17 20 1005.3 - 1.2 Rain - - - - - -
19/11:30am 13.6 NNW 21 25 1005.1 - 0.2 - - - - - - -
19/11:00am 14.2 NNW 19 22 1005.1 - 0.2 - - - - - - -
19/10:30am 14.4 NNW 18 21 1005.2 - 0.2 - - - - - - -
19/10:00am 14.4 NNW 16 21 1005.0 - 0.2 - - - - - - -
19/09:30am 13.3 NW 15 23 1005.1 - 0.0 - - - - - - -
19/09:00am 13.7 NW 14 17 1005.0 - 5.6 - - - - - - -
19/08:30am 13.0 NW 10 16 1005.1 - 5.6 - - - - - - -
19/08:00am 11.9 WNW 7 11 1005.1 - 5.6 - - - - - - -
19/07:30am 12.1 WNW 8 13 1005.1 - 5.2 - - - - - - -
19/07:00am 11.3 W 9 14 1005.0 - 5.0 - - - - - - -
19/06:30am 11.5 W 10 20 1005.0 - 4.8 - - - - - - -
19/06:00am 11.6 W 11 15 1004.6 - 2.8 Rain - - - - - -
19/05:40am 12.9 NW 15 21 1004.7 - 2.6 - - - - - - -
19/05:30am 13.5 NNW 20 24 1004.6 - 2.4 - - - - - - -
19/05:00am 12.1 NW 16 20 1004.8 - 2.4 - - - - - - -
19/04:30am 12.8 W 14 23 1005.4 - 0.6 - - - - - - -
19/04:00am 13.9 WNW 13 19 1005.4 - 0.2 - - - - - - -
19/03:30am 13.8 NW 16 21 1005.7 - 0.2 - - - - - - -
19/03:00am 12.4 NW 18 31 1006.1 - 0.2 Rain - - - - - -
19/02:53am 12.6 NW 24 31 1006.1 - 0.0 - - - - - - -
19/02:46am 14.6 WNW 17 27 1006.0 - 0.0 - - - - - - -
19/02:30am 14.5 WNW 16 24 1006.2 - 0.0 - - - - - - -
19/02:00am 14.5 WNW 16 24 1006.4 - 0.0 - - - - - - -
19/01:30am 14.5 WNW 16 23 1006.4 - 0.0 - - - - - - -
19/01:00am 14.5 WNW 17 22 1006.8 - 0.0 - - - - - - -
19/12:30am 14.6 WNW 15 22 1006.9 - 0.0 - - - - - - -
19/12:00am 14.6 WNW 16 21 1007.0 - 0.0 - - - - - - -
 
Date/Time
EDT
Temp
°C
Wind Pressure Rain since
9am
mm
Weather Cloud Vis
km
Sea
Height
m
Swell
Dir  Spd
kts
Gust
kts
hPa Trend Height
m
Period
s
Dir
18/11:30pm 14.6 WNW 15 21 1007.2 - 0.0 - - - - - - -
18/11:00pm 14.4 WNW 17 24 1007.4 - 0.0 - - - - - - -
18/10:30pm 14.6 WNW 17 25 1007.7 - 0.0 - - - - - - -
18/10:00pm 14.7 WNW 16 23 1007.7 - 0.0 - - - - - - -
18/09:30pm 14.6 WNW 16 22 1007.7 - 0.0 - - - - - - -
18/09:00pm 14.7 WNW 17 23 1007.7 - 0.0 - - - - - - -
18/08:30pm 14.8 WNW 18 23 1007.4 - 0.0 - - - - - - -
18/08:00pm 14.9 WNW 15 23 1007.4 - 0.0 - - - - - - -
18/07:30pm 15.3 WNW 16 22 1007.2 - 0.0 - - - - - - -
18/07:00pm 15.5 WNW 15 23 1006.9 - 0.0 - - - - - - -
18/06:30pm 16.2 WNW 14 20 1006.7 - 0.0 - - - - - - -
18/06:00pm 16.4 WNW 16 25 1007.0 - 0.0 - - - - - - -
18/05:30pm 16.4 WNW 16 24 1006.9 - 0.0 - - - - - - -
18/05:00pm 16.9 WNW 17 23 1006.8 - 0.0 - - - - - - -
18/04:30pm 17.2 WNW 16 23 1006.9 - 0.0 - - - - - - -
18/04:00pm 17.4 WNW 16 23 1007.0 - 0.0 - - - - - - -
18/03:30pm 17.7 WNW 15 21 1007.2 - 0.0 - - - - - - -
18/03:00pm 17.9 W 15 21 1007.3 - 0.0 - - - - - - -
18/02:30pm 18.1 WNW 15 21 1007.4 - 0.0 - - - - - - -
18/02:00pm 18.0 WNW 14 20 1007.6 - 0.0 - - - - - - -
18/01:30pm 18.0 WNW 13 20 1007.6 - 0.0 - - - - - - -
18/01:00pm 18.2 W 12 18 1007.8 - 0.0 - - - - - - -
18/12:30pm 18.0 WNW 11 17 1007.9 - 0.0 - - - - - - -
18/12:00pm 18.3 WNW 11 19 1008.1 - 0.0 - - - - - - -
18/11:30am 17.2 W 12 18 1008.0 - 0.0 - - - - - - -
18/11:00am 16.8 W 11 15 1008.0 - 0.0 - - - - - - -
18/10:30am 16.7 W 10 15 1008.1 - 0.0 - - - - - - -
18/10:00am 15.7 W 10 14 1008.0 - 0.0 - - - - - - -
18/09:30am 15.5 WSW 9 15 1007.9 - 0.0 - - - - - - -
18/09:00am 15.8 WSW 8 12 1007.8 - 0.0 - - - - - - -
18/08:30am 15.2 WSW 6 10 1007.8 - 0.0 - - - - - - -
18/08:00am 14.2 WSW 6 9 1007.6 - 0.0 - - - - - - -
18/07:30am 14.0 SW 8 10 1007.0 - 0.0 - - - - - - -
18/07:00am 14.3 W 14 20 1006.5 - 0.0 - - - - - - -
18/06:30am 14.4 WSW 13 22 1006.3 - 0.0 - - - - - - -
18/06:00am 14.4 W 14 21 1005.9 - 0.0 - - - - - - -
18/05:30am 14.2 W 13 20 1006.1 - 0.0 - - - - - - -
18/05:00am 14.4 W 15 22 1005.9 - 0.0 - - - - - - -
18/04:30am 14.5 W 16 22 1005.8 - 0.0 - - - - - - -
18/04:00am 14.9 W 13 19 1005.9 - 0.0 - - - - - - -
18/03:30am 14.4 W 14 19 1006.0 - 0.0 - - - - - - -
18/03:00am 14.5 W 13 19 1006.1 - 0.0 - - - - - - -
18/02:30am 15.0 W 16 22 1006.0 - 0.0 - - - - - - -
18/02:00am 15.6 W 13 19 1006.0 - 0.0 - - - - - - -
18/01:30am 15.6 W 15 20 1006.2 - 0.0 - - - - - - -
18/01:00am 15.9 WNW 15 23 1006.5 - 0.0 - - - - - - -
18/12:30am 16.1 WNW 13 18 1006.4 - 0.0 - - - - - - -
18/12:00am 16.1 WNW 13 20 1006.7 - 0.0 - - - - - - -
 
Date/Time
EDT
Temp
°C
Wind Pressure Rain since
9am
mm
Weather Cloud Vis
km
Sea
Height
m
Swell
Dir  Spd
kts
Gust
kts
hPa Trend Height
m
Period
s
Dir
17/11:30pm 16.1 WNW 17 22 1006.7 - 0.0 - - - - - - -
17/11:00pm 16.0 WNW 15 19 1006.5 - 0.0 - - - - - - -
17/10:30pm 16.5 WNW 15 21 1006.7 - 0.0 - - - - - - -
17/10:00pm 16.3 WNW 16 21 1006.7 - 0.0 - - - - - - -
17/09:30pm 16.1 WNW 14 21 1006.6 - 0.0 - - - - - - -
17/09:02pm 16.3 WNW 16 26 1006.3 - 0.0 - - - - - - -
17/09:00pm 16.4 WNW 17 26 1006.3 - 0.0 - - - - - - -
17/08:47pm 16.1 WNW 17 28 1006.1 - 0.0 - - - - - - -
17/08:30pm 16.3 WNW 18 25 1006.0 - 0.0 - - - - - - -
17/08:00pm 16.4 WNW 20 28 1005.8 - 0.0 - - - - - - -
17/07:30pm 17.4 WNW 21 27 1005.2 - 0.0 - - - - - - -
17/07:00pm 17.5 WNW 21 28 1005.0 - 0.0 - - - - - - -
17/06:30pm 17.6 WNW 22 28 1005.1 - 0.0 - - - - - - -
17/06:00pm 18.1 WNW 22 27 1005.1 - 0.0 - - - - - - -
17/05:30pm 18.4 WNW 21 27 1004.9 - 0.0 - - - - - - -
17/05:00pm 18.5 WNW 20 26 1005.1 - 0.0 - - - - - - -
17/04:30pm 18.9 WNW 19 24 1005.1 - 0.0 - - - - - - -
17/04:00pm 19.2 WNW 16 21 1005.3 - 0.0 - - - - - - -
17/03:30pm 19.2 WNW 16 22 1005.4 - 0.0 - - - - - - -
17/03:00pm 19.1 WNW 19 26 1005.7 - 0.0 - - - - - - -
17/02:30pm 19.6 WNW 16 22 1005.9 - 0.0 - - - - - - -
17/02:00pm 19.6 WNW 16 22 1006.1 - 0.0 - - - - - - -
17/01:30pm 18.6 WNW 15 21 1006.2 - 0.0 - - - - - - -
17/01:00pm 18.8 WNW 16 23 1006.3 - 0.0 - - - - - - -
17/12:30pm 18.4 WNW 17 22 1006.3 - 0.0 - - - - - - -
17/12:00pm 17.6 WNW 17 22 1006.4 - 0.0 - - - - - - -
17/11:30am 18.0 WNW 18 27 1006.6 - 0.0 - - - - - - -
17/11:00am 17.6 WNW 16 24 1006.6 - 0.0 - - - - - - -
17/10:30am 18.9 WNW 16 20 1006.6 - 0.0 - - - - - - -
17/10:00am 18.4 WNW 15 22 1006.6 - 0.0 - - - - - - -
17/09:30am 18.2 WNW 14 21 1006.7 - 0.0 - - - - - - -
17/09:00am 17.3 WNW 15 21 1006.9 - 0.0 - - - - - - -
17/08:30am 16.6 WNW 16 22 1006.9 - 0.0 - - - - - - -
17/08:00am 16.3 WNW 16 21 1006.6 - 0.0 - - - - - - -
17/07:30am 16.1 WNW 15 22 1006.7 - 0.0 - - - - - - -
17/07:00am 15.9 WNW 16 23 1006.4 - 0.0 - - - - - - -
17/06:30am 15.7 WNW 16 22 1006.2 - 0.0 - - - - - - -
17/06:00am 15.6 WNW 13 17 1006.1 - 0.0 - - - - - - -
17/05:30am 15.5 WNW 14 20 1005.9 - 0.0 - - - - - - -
17/05:00am 15.5 WNW 14 21 1006.0 - 0.0 - - - - - - -
17/04:30am 15.5 WNW 14 19 1006.2 - 0.0 - - - - - - -
17/04:00am 15.7 WNW 14 19 1006.4 - 0.0 - - - - - - -

Other Formats:

Comma delimited format used in spreadsheet applications
http://www.bom.gov.au/fwo/IDT60701/IDT60701.95985.axf

JavaScript Object Notation format (JSON) in row-major order
http://www.bom.gov.au/fwo/IDT60701/IDT60701.95985.json